Time;durP1;ratioP1;P1;durP2;ratioP2;P2;SDS_P1;SDS_P2;PMS_P1;PMS_P2;Temp;Humidity;BMP_temperature;BMP_pressure;BME280_temperature;BME280_humidity;BME280_pressure;Samples;Min_cycle;Max_cycle;Signal;HPM_P1;HPM_P2
2022/02/11 00:01:53;;;;;;;16.57;9.53;;;7.20;99.90;;;;;;5051109;28;20524;-75
2022/02/11 00:05:10;;;;;;;16.10;8.77;;;7.20;99.90;;;;;;5049014;28;21159;-75
2022/02/11 00:07:56;;;;;;;12.47;9.30;;;7.20;99.90;;;;;;5047973;28;20411;-75
2022/02/11 00:10:41;;;;;;;14.37;8.87;;;7.10;99.90;;;;;;5053477;28;20542;-74
2022/02/11 00:13:29;;;;;;;12.80;9.30;;;7.20;99.90;;;;;;5052130;28;20553;-75
2022/02/11 00:16:16;;;;;;;15.40;9.33;;;7.10;99.90;;;;;;5047133;28;20761;-75
2022/02/11 00:19:02;;;;;;;14.13;9.50;;;7.10;99.90;;;;;;5053487;28;20456;-75
2022/02/11 00:21:49;;;;;;;16.37;9.37;;;7.00;99.90;;;;;;5051418;28;20495;-74
2022/02/11 00:24:35;;;;;;;13.93;9.30;;;7.00;99.90;;;;;;5047549;28;20437;-74
2022/02/11 00:33:40;;;;;;;19.80;9.97;;;6.90;99.90;;;;;;4980284;28;20516;-75
2022/02/11 00:36:31;;;;;;;19.23;10.23;;;6.90;99.90;;;;;;5047529;28;20514;-74
2022/02/11 00:39:43;;;;;;;14.10;10.13;;;6.90;99.90;;;;;;5051158;28;20863;-75
2022/02/11 00:45:51;;;;;;;15.60;10.40;;;7.00;99.90;;;;;;5046353;28;20938;-74
2022/02/11 01:03:59;;;;;;;18.43;10.97;;;6.90;99.90;;;;;;5050301;28;20509;-75
2022/02/11 01:06:45;;;;;;;14.87;9.20;;;6.90;99.90;;;;;;5051054;28;20468;-75
2022/02/11 01:09:33;;;;;;;19.43;9.10;;;6.90;99.90;;;;;;5043233;28;20427;-75
2022/02/11 01:12:20;;;;;;;16.07;9.70;;;6.90;99.90;;;;;;5050173;28;20859;-74
2022/02/11 01:15:07;;;;;;;10.20;8.20;;;6.80;99.90;;;;;;5044921;28;20451;-75
2022/02/11 01:17:56;;;;;;;10.37;6.20;;;6.70;99.90;;;;;;5049881;28;20454;-74
2022/02/11 01:20:48;;;;;;;7.97;5.70;;;6.60;99.90;;;;;;5046935;28;20497;-74
2022/02/11 01:23:47;;;;;;;8.47;4.90;;;6.40;99.90;;;;;;5046364;28;20453;-75
2022/02/11 01:26:44;;;;;;;3.93;3.30;;;6.30;99.90;;;;;;5045460;28;20476;-74
2022/02/11 01:30:00;;;;;;;5.50;3.67;;;6.20;99.90;;;;;;5045499;28;20436;-72
2022/02/11 01:33:05;;;;;;;3.13;2.10;;;6.20;99.90;;;;;;5052716;28;20432;-75
2022/02/11 01:36:01;;;;;;;3.10;2.23;;;6.20;99.90;;;;;;5059467;28;20505;-72
2022/02/11 01:39:07;;;;;;;3.50;2.50;;;6.10;99.90;;;;;;5039501;28;20525;-75
2022/02/11 01:45:18;;;;;;;2.10;1.57;;;6.10;99.90;;;;;;5027668;28;21007;-72
2022/02/11 01:48:33;;;;;;;1.70;1.23;;;6.00;99.90;;;;;;5047814;28;20570;-74
2022/02/11 01:51:30;;;;;;;1.60;1.23;;;6.10;99.90;;;;;;5054835;28;21021;-74
2022/02/11 01:54:18;;;;;;;1.60;1.20;;;6.10;99.90;;;;;;5059165;28;20534;-74
2022/02/11 01:57:10;;;;;;;2.07;1.27;;;5.90;99.90;;;;;;5047019;28;20788;-74
2022/02/11 02:00:24;;;;;;;1.30;0.90;;;5.70;99.90;;;;;;5050638;28;20490;-74
2022/02/11 02:03:37;;;;;;;1.40;0.87;;;5.70;99.90;;;;;;5039524;28;20511;-74
2022/02/11 02:25:02;;;;;;;1.50;1.08;;;5.50;99.90;;;;;;5047382;28;20500;-74
2022/02/11 02:28:02;;;;;;;3.03;1.53;;;5.50;99.90;;;;;;5047521;28;20208;-74
2022/02/11 02:34:31;;;;;;;2.10;1.70;;;5.40;99.90;;;;;;5046207;28;20665;-74
2022/02/11 02:37:39;;;;;;;2.10;1.60;;;5.40;99.90;;;;;;5048240;28;20449;-74
2022/02/11 02:58:59;;;;;;;1.77;1.27;;;5.30;99.90;;;;;;5047020;28;20670;-74
2022/02/11 03:01:52;;;;;;;3.07;1.70;;;5.30;99.90;;;;;;5041127;28;20191;-75
2022/02/11 03:35:39;;;;;;;1.95;1.65;;;5.40;99.90;;;;;;5050844;28;20454;-74
2022/02/11 03:51:06;;;;;;;2.47;1.90;;;5.30;99.90;;;;;;5047481;28;20444;-74
2022/02/11 04:22:10;;;;;;;3.45;2.40;;;5.20;99.90;;;;;;5046476;28;20661;-74
2022/02/11 04:55:43;;;;;;;3.42;2.60;;;5.00;99.90;;;;;;5046704;28;20228;-74
2022/02/11 05:01:34;;;;;;;9.32;2.90;;;5.00;99.90;;;;;;5047874;28;20724;-74
2022/02/11 05:04:20;;;;;;;3.13;2.15;;;5.00;99.90;;;;;;5054336;28;20235;-74
2022/02/11 05:07:05;;;;;;;4.65;3.50;;;4.90;99.90;;;;;;5049392;28;20329;-74
2022/02/11 05:09:51;;;;;;;4.32;3.53;;;4.90;99.90;;;;;;5048423;28;20669;-74
2022/02/11 05:12:37;;;;;;;4.63;2.70;;;4.90;99.90;;;;;;5049099;28;20204;-74
2022/02/11 05:15:24;;;;;;;3.83;3.10;;;4.80;99.90;;;;;;5048386;28;20225;-74
2022/02/11 05:18:10;;;;;;;4.10;3.20;;;4.80;99.90;;;;;;5048547;28;20324;-74
2022/02/11 05:20:55;;;;;;;5.80;3.28;;;4.80;99.90;;;;;;5045961;28;20582;-74
2022/02/11 05:23:41;;;;;;;5.72;3.28;;;4.80;99.90;;;;;;5049524;28;20204;-74
2022/02/11 05:26:27;;;;;;;3.80;3.08;;;4.80;99.90;;;;;;5046139;28;20214;-73
2022/02/11 05:29:13;;;;;;;3.90;3.22;;;4.70;99.90;;;;;;5048472;28;20230;-74
2022/02/11 05:32:00;;;;;;;5.63;3.30;;;4.70;99.90;;;;;;5049139;28;20385;-74
2022/02/11 05:34:46;;;;;;;3.70;3.07;;;4.60;99.90;;;;;;5050675;28;20579;-74
2022/02/11 05:37:31;;;;;;;4.57;3.50;;;4.60;99.90;;;;;;5048966;28;20977;-74
2022/02/11 05:40:17;;;;;;;5.28;3.40;;;4.60;99.90;;;;;;5047428;28;20265;-74
2022/02/11 05:43:02;;;;;;;5.40;3.20;;;4.50;99.90;;;;;;5045084;28;20209;-74
2022/02/11 05:45:48;;;;;;;4.05;3.60;;;4.50;99.90;;;;;;5049527;28;20262;-74
2022/02/11 05:48:36;;;;;;;5.30;4.03;;;4.50;99.90;;;;;;5048712;28;20205;-74
2022/02/11 05:51:21;;;;;;;8.40;5.18;;;4.40;99.90;;;;;;5044329;28;20534;-74
2022/02/11 05:54:07;;;;;;;5.60;4.10;;;4.30;99.90;;;;;;5045131;28;20320;-74
2022/02/11 05:56:53;;;;;;;4.97;4.20;;;4.20;99.90;;;;;;5049807;28;20566;-74
2022/02/11 05:59:39;;;;;;;5.97;3.53;;;4.00;99.90;;;;;;5041575;28;20687;-74
2022/02/11 06:02:24;;;;;;;4.45;3.50;;;3.90;99.90;;;;;;5046433;28;20814;-74
2022/02/11 06:05:16;;;;;;;4.72;3.40;;;4.00;99.90;;;;;;5050382;28;20226;-74
2022/02/11 06:08:01;;;;;;;5.00;4.00;;;4.00;99.90;;;;;;5043881;28;20666;-74
2022/02/11 06:10:47;;;;;;;4.50;3.53;;;3.90;99.90;;;;;;5047667;28;20197;-75
2022/02/11 06:13:34;;;;;;;12.30;3.60;;;3.90;99.90;;;;;;5047657;28;20319;-74
2022/02/11 06:16:19;;;;;;;4.90;3.72;;;3.90;99.90;;;;;;5047667;28;20233;-74
2022/02/11 06:19:05;;;;;;;5.93;4.03;;;3.90;99.90;;;;;;5044909;28;20205;-74
2022/02/11 06:21:52;;;;;;;10.15;6.30;;;3.90;99.90;;;;;;5047512;28;20445;-73
2022/02/11 06:24:38;;;;;;;9.35;5.60;;;3.90;99.90;;;;;;5047804;28;20206;-74
2022/02/11 06:27:23;;;;;;;6.53;4.50;;;3.80;99.90;;;;;;5048394;28;20197;-74
2022/02/11 06:30:10;;;;;;;15.13;8.75;;;3.80;99.90;;;;;;5045380;28;20477;-74
2022/02/11 06:32:56;;;;;;;6.35;4.00;;;3.80;99.90;;;;;;5045482;28;20306;-74
2022/02/11 06:35:44;;;;;;;5.55;4.10;;;3.60;99.90;;;;;;5048259;28;20225;-74
2022/02/11 06:38:31;;;;;;;16.98;9.20;;;3.60;99.90;;;;;;5042120;28;20205;-73
2022/02/11 06:41:16;;;;;;;24.08;11.75;;;3.50;99.90;;;;;;5050401;28;20679;-73
2022/02/11 06:44:02;;;;;;;15.23;8.77;;;3.60;99.90;;;;;;5048550;28;20340;-73
2022/02/11 06:46:48;;;;;;;22.52;9.38;;;3.60;99.90;;;;;;5046419;28;20266;-73
2022/02/11 06:49:33;;;;;;;16.13;8.02;;;3.50;99.90;;;;;;5043600;28;20593;-73
2022/02/11 06:52:19;;;;;;;14.45;7.93;;;3.50;99.90;;;;;;5043260;28;20204;-73
2022/02/11 06:55:08;;;;;;;15.27;8.25;;;3.50;99.90;;;;;;5049354;28;20282;-73
2022/02/11 06:57:53;;;;;;;22.70;12.02;;;3.40;99.90;;;;;;5049613;28;20470;-73
2022/02/11 07:00:40;;;;;;;16.13;8.88;;;3.40;99.90;;;;;;5047528;28;20315;-73
2022/02/11 07:03:26;;;;;;;14.35;7.80;;;3.50;99.90;;;;;;5052157;28;20328;-73
2022/02/11 07:06:11;;;;;;;14.15;8.25;;;3.40;99.90;;;;;;5050520;28;20225;-73
2022/02/11 07:08:57;;;;;;;16.90;7.72;;;3.40;99.90;;;;;;5046630;28;20201;-73
2022/02/11 07:11:44;;;;;;;19.25;6.95;;;3.40;99.90;;;;;;5050119;28;20274;-73
2022/02/11 07:14:29;;;;;;;9.80;6.32;;;3.40;99.90;;;;;;5045972;28;20209;-73
2022/02/11 07:17:15;;;;;;;48.40;17.48;;;3.40;99.90;;;;;;5044696;28;20209;-73
2022/02/11 07:20:01;;;;;;;19.25;9.43;;;3.40;99.90;;;;;;5048634;28;20272;-72
2022/02/11 07:22:46;;;;;;;9.15;5.45;;;3.40;99.90;;;;;;5051317;28;20672;-73
2022/02/11 07:25:33;;;;;;;17.05;5.88;;;3.40;99.90;;;;;;5054413;28;20243;-73
2022/02/11 07:28:21;;;;;;;57.42;21.48;;;3.40;99.90;;;;;;5046966;28;20584;-73
2022/02/11 07:31:06;;;;;;;24.52;9.55;;;3.50;99.90;;;;;;5049900;28;20587;-73
2022/02/11 07:33:52;;;;;;;21.48;10.82;;;3.50;99.90;;;;;;5053548;28;20205;-73
2022/02/11 07:36:37;;;;;;;23.10;11.90;;;3.60;99.90;;;;;;5050493;28;20221;-73
2022/02/11 07:39:23;;;;;;;29.05;12.52;;;3.60;99.90;;;;;;5050748;28;20225;-73
2022/02/11 07:42:09;;;;;;;17.08;9.35;;;3.70;99.90;;;;;;5054274;28;20772;-72
2022/02/11 07:44:57;;;;;;;15.82;7.90;;;3.80;99.90;;;;;;5046646;28;20690;-73
2022/02/11 07:47:44;;;;;;;12.32;7.05;;;3.80;99.90;;;;;;5043110;28;20214;-73
2022/02/11 07:50:29;;;;;;;13.27;7.57;;;3.80;99.90;;;;;;5052350;28;20221;-72
2022/02/11 07:53:16;;;;;;;15.30;7.32;;;3.80;99.90;;;;;;5051899;28;20275;-71
2022/02/11 07:56:02;;;;;;;10.05;6.35;;;3.90;99.90;;;;;;5052400;28;20260;-71
2022/02/11 07:58:48;;;;;;;10.20;6.50;;;3.90;99.90;;;;;;5049322;28;20201;-71
2022/02/11 08:01:35;;;;;;;10.60;6.00;;;4.00;99.90;;;;;;5048805;28;20214;-72
2022/02/11 08:04:20;;;;;;;15.73;7.35;;;4.10;99.90;;;;;;5051418;28;20197;-72
2022/02/11 08:07:06;;;;;;;12.75;6.85;;;4.20;99.90;;;;;;5055247;28;20252;-73
2022/02/11 08:09:51;;;;;;;13.38;6.65;;;4.30;99.90;;;;;;5052217;28;20251;-72
2022/02/11 08:12:37;;;;;;;12.38;6.95;;;4.30;99.90;;;;;;5053516;28;20210;-72
2022/02/11 08:15:23;;;;;;;10.70;5.63;;;4.30;99.90;;;;;;5050088;28;20729;-73
2022/02/11 08:18:10;;;;;;;16.95;6.65;;;4.40;99.90;;;;;;5049772;28;20205;-73
2022/02/11 08:20:56;;;;;;;11.32;6.13;;;4.50;99.90;;;;;;5052264;28;20251;-72
2022/02/11 08:23:41;;;;;;;11.45;6.32;;;4.60;99.90;;;;;;5060312;28;20198;-72
2022/02/11 08:26:29;;;;;;;15.85;6.50;;;4.60;99.90;;;;;;5049368;28;20349;-72
2022/02/11 08:29:20;;;;;;;8.75;4.85;;;4.70;99.90;;;;;;5049843;28;20350;-73
2022/02/11 08:32:07;;;;;;;11.18;6.10;;;4.80;99.90;;;;;;5057355;28;20208;-73
2022/02/11 08:34:54;;;;;;;11.70;6.50;;;4.90;99.90;;;;;;5053500;28;20198;-72
2022/02/11 08:37:40;;;;;;;8.23;5.35;;;4.80;99.90;;;;;;5047424;28;20210;-72
2022/02/11 08:40:26;;;;;;;15.82;6.45;;;4.80;99.90;;;;;;5054772;28;20209;-72
2022/02/11 08:43:11;;;;;;;11.63;5.68;;;4.80;99.90;;;;;;5049403;28;20206;-72
2022/02/11 08:45:57;;;;;;;8.30;5.57;;;4.90;99.90;;;;;;5048288;28;20225;-72
2022/02/11 08:48:43;;;;;;;10.57;5.20;;;4.90;99.90;;;;;;5051137;28;20284;-73
2022/02/11 08:51:30;;;;;;;15.80;5.03;;;4.90;99.90;;;;;;5054175;28;20279;-72
2022/02/11 08:54:15;;;;;;;14.48;6.07;;;5.00;99.90;;;;;;5052220;28;21084;-72
2022/02/11 08:57:01;;;;;;;15.10;6.38;;;5.00;99.90;;;;;;5053892;28;20230;-71
2022/02/11 08:59:47;;;;;;;9.95;6.97;;;5.10;99.90;;;;;;5043800;28;20217;-71
2022/02/11 09:02:32;;;;;;;17.00;6.50;;;5.20;99.90;;;;;;5057977;28;20201;-72
2022/02/11 09:05:21;;;;;;;15.13;8.07;;;5.20;99.90;;;;;;5050233;28;20491;-73
2022/02/11 09:08:09;;;;;;;17.35;8.93;;;5.20;99.90;;;;;;5049797;28;20433;-72
2022/02/11 09:10:55;;;;;;;10.00;5.28;;;5.20;99.90;;;;;;5051412;28;20340;-72
2022/02/11 09:13:40;;;;;;;10.23;5.20;;;5.10;99.90;;;;;;5042118;28;20210;-73
2022/02/11 09:16:26;;;;;;;10.48;5.78;;;5.10;99.90;;;;;;5046442;28;20483;-72
2022/02/11 09:19:11;;;;;;;13.05;5.80;;;5.10;99.90;;;;;;5046185;28;20205;-72
2022/02/11 09:21:57;;;;;;;14.43;5.60;;;5.20;99.90;;;;;;5049991;28;20205;-72
2022/02/11 09:24:45;;;;;;;11.40;5.73;;;5.20;99.90;;;;;;5046468;28;20281;-72
2022/02/11 09:27:30;;;;;;;11.30;5.73;;;5.30;99.90;;;;;;5050094;28;20786;-72
2022/02/11 09:30:18;;;;;;;9.68;5.55;;;5.30;99.90;;;;;;5052239;28;20425;-72
2022/02/11 09:33:05;;;;;;;17.40;5.93;;;5.20;99.90;;;;;;5044679;28;20591;-72
2022/02/11 09:35:51;;;;;;;8.52;5.50;;;5.20;99.90;;;;;;5047326;28;20228;-73
2022/02/11 09:38:37;;;;;;;28.63;6.90;;;5.20;99.90;;;;;;5050659;28;20287;-72
2022/02/11 09:41:25;;;;;;;14.70;5.90;;;5.20;99.90;;;;;;5046543;28;20452;-72
2022/02/11 09:44:13;;;;;;;14.03;5.03;;;5.20;99.90;;;;;;5053428;28;20201;-72
2022/02/11 09:46:59;;;;;;;6.85;5.45;;;5.40;99.90;;;;;;5045708;28;20442;-72
2022/02/11 09:49:47;;;;;;;13.27;6.13;;;5.50;99.90;;;;;;5058492;28;20704;-72
2022/02/11 09:52:38;;;;;;;10.52;5.25;;;5.50;99.90;;;;;;5054197;28;20204;-70
2022/02/11 09:55:35;;;;;;;12.23;5.65;;;5.50;99.90;;;;;;5044727;28;20234;-73
2022/02/11 09:58:22;;;;;;;17.50;5.38;;;5.60;99.90;;;;;;5044988;28;20201;-72
2022/02/11 10:01:09;;;;;;;9.20;4.53;;;5.70;99.90;;;;;;5038369;28;20209;-74
2022/02/11 10:04:12;;;;;;;15.73;6.28;;;5.70;99.90;;;;;;5046861;28;20452;-72
2022/02/11 10:06:59;;;;;;;9.60;5.50;;;5.70;99.90;;;;;;5045479;28;20213;-72
2022/02/11 10:09:44;;;;;;;10.32;5.70;;;5.80;99.90;;;;;;5049080;28;20283;-72
2022/02/11 10:12:31;;;;;;;10.77;5.63;;;5.70;99.90;;;;;;5043314;28;20220;-72
2022/02/11 10:15:22;;;;;;;11.65;6.70;;;5.70;99.90;;;;;;5047422;28;20319;-72
2022/02/11 10:18:09;;;;;;;12.70;6.20;;;5.80;99.90;;;;;;5047324;28;20358;-72
2022/02/11 10:20:57;;;;;;;7.60;5.15;;;5.90;99.90;;;;;;5045206;28;20515;-72
2022/02/11 10:23:43;;;;;;;13.07;6.55;;;5.90;99.90;;;;;;5046200;28;20337;-71
2022/02/11 10:26:29;;;;;;;11.85;5.45;;;5.90;99.90;;;;;;5044589;28;20220;-72
2022/02/11 10:29:16;;;;;;;10.20;5.45;;;5.90;99.90;;;;;;5047981;28;20264;-72
2022/02/11 10:32:03;;;;;;;11.13;5.72;;;6.00;99.90;;;;;;5050176;28;20288;-72
2022/02/11 10:34:53;;;;;;;14.25;5.70;;;6.20;99.90;;;;;;5054257;28;20200;-72
2022/02/11 10:38:06;;;;;;;9.30;5.40;;;6.40;99.90;;;;;;5052279;28;20273;-71
2022/02/11 10:40:53;;;;;;;14.02;5.05;;;6.50;99.90;;;;;;5050244;28;20190;-72
2022/02/11 10:43:39;;;;;;;18.37;5.23;;;6.50;99.90;;;;;;5051622;28;20809;-73
2022/02/11 10:46:25;;;;;;;13.30;5.67;;;6.40;99.90;;;;;;5052157;28;20460;-72
2022/02/11 10:49:14;;;;;;;12.93;5.75;;;6.40;99.90;;;;;;5047313;28;20428;-72
2022/02/11 10:52:10;;;;;;;10.90;5.60;;;6.40;99.90;;;;;;5045952;28;20198;-72
2022/02/11 10:54:57;;;;;;;10.75;5.80;;;6.40;99.90;;;;;;5049403;28;20436;-71
2022/02/11 10:57:54;;;;;;;10.13;5.53;;;6.40;99.90;;;;;;5047291;28;20568;-73
2022/02/11 11:00:40;;;;;;;12.70;5.35;;;6.30;99.90;;;;;;5047955;28;20551;-73
2022/02/11 11:03:28;;;;;;;12.80;6.20;;;6.20;99.90;;;;;;5053440;28;20667;-73
2022/02/11 11:06:15;;;;;;;11.77;5.55;;;6.30;99.90;;;;;;5061447;28;20578;-73
2022/02/11 11:09:01;;;;;;;11.07;5.63;;;6.40;99.90;;;;;;5060572;28;20209;-72
2022/02/11 11:11:48;;;;;;;14.38;5.35;;;6.50;99.90;;;;;;5048734;28;20572;-72
2022/02/11 11:14:33;;;;;;;12.95;5.20;;;6.60;99.90;;;;;;5042252;28;20206;-73
2022/02/11 11:17:22;;;;;;;10.93;5.30;;;6.70;99.90;;;;;;5053264;28;20308;-72
2022/02/11 11:20:09;;;;;;;11.50;5.70;;;6.70;99.90;;;;;;5056622;28;20450;-73
2022/02/11 11:23:02;;;;;;;15.17;5.10;;;6.70;99.90;;;;;;5040937;28;20452;-72
2022/02/11 11:26:02;;;;;;;9.27;4.60;;;6.80;99.90;;;;;;5034672;28;20473;-73
2022/02/11 11:28:49;;;;;;;11.33;5.37;;;6.80;99.90;;;;;;5051878;28;20451;-72
2022/02/11 11:31:36;;;;;;;10.80;4.45;;;6.80;99.90;;;;;;5060445;28;20423;-72
2022/02/11 11:34:30;;;;;;;8.17;2.93;;;6.80;99.90;;;;;;5047771;28;20291;-72
2022/02/11 11:37:16;;;;;;;14.87;3.93;;;6.70;99.90;;;;;;5042552;28;20597;-72
2022/02/11 11:40:23;;;;;;;8.17;3.37;;;6.60;99.90;;;;;;5046285;28;20445;-72
2022/02/11 11:43:12;;;;;;;15.85;5.50;;;6.70;99.90;;;;;;5052138;28;20980;-73
2022/02/11 11:46:04;;;;;;;12.40;5.27;;;6.70;99.90;;;;;;5047183;28;20581;-72
2022/02/11 11:48:54;;;;;;;20.70;6.87;;;6.70;99.90;;;;;;5055735;28;20448;-72
2022/02/11 11:52:03;;;;;;;9.93;4.38;;;6.70;99.90;;;;;;5052444;28;20565;-72
2022/02/11 11:54:49;;;;;;;9.50;2.93;;;6.70;99.90;;;;;;5047087;28;20211;-73
2022/02/11 11:57:38;;;;;;;7.03;3.08;;;6.80;99.90;;;;;;5048665;28;20873;-72
2022/02/11 12:00:34;;;;;;;8.27;2.90;;;6.90;99.90;;;;;;5050838;28;20205;-73
2022/02/11 12:03:20;;;;;;;5.67;2.83;;;6.90;99.90;;;;;;5047334;28;20499;-73
2022/02/11 12:06:19;;;;;;;10.37;3.43;;;6.90;99.90;;;;;;5050147;28;20577;-73
2022/02/11 12:09:04;;;;;;;7.05;2.47;;;6.90;99.90;;;;;;5056108;28;20430;-72
2022/02/11 12:11:54;;;;;;;4.90;1.47;;;6.50;99.90;;;;;;5052175;28;20205;-73
2022/02/11 12:14:44;;;;;;;3.40;1.70;;;6.20;99.90;;;;;;5049535;28;20457;-73
2022/02/11 12:17:30;;;;;;;4.40;1.33;;;6.00;99.90;;;;;;5044591;28;21362;-71
2022/02/11 12:20:15;;;;;;;3.37;1.20;;;5.80;99.90;;;;;;5048845;28;20427;-72
2022/02/11 12:29:14;;;;;;;1.70;1.20;;;5.50;99.90;;;;;;5056208;28;20466;-72
2022/02/11 12:32:04;;;;;;;1.85;1.20;;;5.40;99.90;;;;;;5052232;28;20205;-72
2022/02/11 12:34:54;;;;;;;5.70;1.70;;;5.50;99.90;;;;;;5048369;28;20201;-73
2022/02/11 12:37:42;;;;;;;3.67;1.77;;;5.90;99.90;;;;;;5057369;28;20459;-73
2022/02/11 12:40:29;;;;;;;2.83;1.13;;;6.40;99.90;;;;;;5051514;28;20421;-72
2022/02/11 12:43:16;;;;;;;8.90;1.47;;;7.00;99.90;;;;;;5046069;28;20951;-73
2022/02/11 12:46:04;;;;;;;4.17;1.43;;;7.60;99.90;;;;;;5054624;28;21000;-72
2022/02/11 12:48:51;;;;;;;6.10;1.20;;;8.10;99.90;;;;;;5056354;28;20426;-72
2022/02/11 12:51:37;;;;;;;4.53;1.10;;;8.20;99.90;;;;;;5050775;28;20443;-72
2022/02/11 12:54:23;;;;;;;4.43;1.30;;;8.10;99.90;;;;;;5047635;28;21083;-71
2022/02/11 12:57:12;;;;;;;4.90;1.50;;;7.90;99.90;;;;;;5045391;28;20465;-73
2022/02/11 12:59:58;;;;;;;6.63;1.77;;;7.80;99.90;;;;;;5047197;28;20820;-72
2022/02/11 13:02:45;;;;;;;3.70;1.43;;;7.60;99.90;;;;;;5049442;28;20468;-72
2022/02/11 13:05:36;;;;;;;8.10;1.77;;;7.50;99.90;;;;;;5052845;28;20481;-72
2022/02/11 13:08:24;;;;;;;6.07;2.67;;;7.60;99.90;;;;;;5054742;28;20426;-72
2022/02/11 13:11:14;;;;;;;9.53;1.63;;;7.90;99.90;;;;;;5048268;28;20803;-72
2022/02/11 13:14:02;;;;;;;5.73;2.00;;;8.20;99.90;;;;;;5052201;28;20450;-72
2022/02/11 13:16:47;;;;;;;7.10;1.80;;;8.60;99.90;;;;;;5048734;28;20564;-71
2022/02/11 13:19:33;;;;;;;3.30;1.67;;;9.00;99.90;;;;;;5039754;28;20507;-72
2022/02/11 13:22:20;;;;;;;5.67;1.43;;;9.00;99.90;;;;;;5055054;28;20416;-71
2022/02/11 13:25:07;;;;;;;4.33;1.77;;;9.10;99.90;;;;;;5049590;28;20497;-72
2022/02/11 13:27:56;;;;;;;7.30;1.63;;;9.30;99.90;;;;;;5041968;28;20538;-72
2022/02/11 13:30:45;;;;;;;5.40;1.87;;;9.30;99.90;;;;;;5046835;28;20417;-72
2022/02/11 13:33:33;;;;;;;8.13;1.80;;;9.40;99.90;;;;;;5049539;28;20521;-72
2022/02/11 13:36:25;;;;;;;7.60;1.77;;;9.50;99.90;;;;;;5057620;28;20448;-72
2022/02/11 13:39:24;;;;;;;7.20;1.93;;;9.70;99.90;;;;;;5048927;28;20477;-72
2022/02/11 13:42:14;;;;;;;5.13;1.60;;;9.80;99.90;;;;;;5057151;28;20971;-71
2022/02/11 13:45:03;;;;;;;6.37;2.00;;;9.70;99.90;;;;;;5044514;28;20444;-71
2022/02/11 13:48:07;;;;;;;6.00;1.83;;;9.40;99.90;;;;;;5055791;28;20466;-71
2022/02/11 13:51:02;;;;;;;6.53;2.33;;;9.10;99.90;;;;;;5072460;22;20504;-73
2022/02/11 13:53:52;;;;;;;6.77;2.33;;;8.70;99.90;;;;;;5049063;28;20445;-74
2022/02/11 13:56:41;;;;;;;5.20;2.43;;;8.40;99.90;;;;;;5050887;28;20969;-73
2022/02/11 13:59:27;;;;;;;4.57;2.20;;;8.00;99.90;;;;;;5042401;28;21028;-73
2022/02/11 14:02:13;;;;;;;6.30;1.90;;;7.80;99.90;;;;;;5044572;28;20446;-73
2022/02/11 14:05:02;;;;;;;6.13;2.23;;;7.60;99.90;;;;;;5051058;28;20591;-75
2022/02/11 14:07:51;;;;;;;5.87;2.17;;;7.50;99.90;;;;;;5055138;28;20439;-73
2022/02/11 14:10:37;;;;;;;9.77;1.77;;;7.30;99.90;;;;;;5048238;28;20508;-72
2022/02/11 14:13:25;;;;;;;13.30;2.17;;;6.90;99.90;;;;;;5054562;28;20948;-73
2022/02/11 14:16:12;;;;;;;5.53;1.77;;;6.50;99.90;;;;;;5051637;28;20463;-74
2022/02/11 14:18:57;;;;;;;4.57;1.83;;;6.20;99.90;;;;;;5045035;28;20225;-73
2022/02/11 14:21:43;;;;;;;6.25;1.90;;;5.90;99.90;;;;;;5054084;28;20221;-73
2022/02/11 14:24:30;;;;;;;6.65;1.73;;;5.70;99.90;;;;;;5048195;28;20205;-73
2022/02/11 14:27:16;;;;;;;5.20;1.90;;;5.60;99.90;;;;;;5053661;28;20217;-74
2022/02/11 14:30:04;;;;;;;6.85;2.10;;;5.70;99.90;;;;;;5043155;28;20226;-73
2022/02/11 14:32:50;;;;;;;6.38;1.77;;;5.70;99.90;;;;;;5049345;28;20569;-73
2022/02/11 14:35:35;;;;;;;3.80;1.92;;;5.80;99.90;;;;;;5048812;28;20572;-73
2022/02/11 14:38:21;;;;;;;6.38;1.85;;;5.80;99.90;;;;;;5053623;28;20320;-75
2022/02/11 14:44:11;;;;;;;4.20;1.50;;;5.90;99.90;;;;;;5057953;28;20196;-73
2022/02/11 14:47:00;;;;;;;2.45;1.60;;;5.90;99.90;;;;;;5053502;28;20291;-73
2022/02/11 14:49:46;;;;;;;6.70;1.95;;;6.00;99.90;;;;;;5046302;28;20246;-73
2022/02/11 14:52:32;;;;;;;7.60;2.05;;;6.10;99.90;;;;;;5045938;28;20190;-73
2022/02/11 14:55:17;;;;;;;5.07;1.75;;;6.20;99.90;;;;;;5044330;28;20209;-72
2022/02/11 14:58:03;;;;;;;4.17;1.73;;;6.20;99.90;;;;;;5040004;28;20245;-73
2022/02/11 15:00:49;;;;;;;4.43;1.50;;;6.20;99.90;;;;;;5052288;28;20448;-72
2022/02/11 15:03:36;;;;;;;5.40;2.17;;;6.30;99.90;;;;;;5057041;28;20421;-72
2022/02/11 15:06:23;;;;;;;7.05;2.10;;;6.30;99.90;;;;;;5054788;28;20209;-72
2022/02/11 15:09:08;;;;;;;5.47;2.07;;;6.40;99.90;;;;;;5058217;28;20200;-72
2022/02/11 15:11:54;;;;;;;3.53;1.65;;;6.20;99.90;;;;;;5057690;28;20700;-73
2022/02/11 15:14:39;;;;;;;11.23;1.70;;;6.30;99.90;;;;;;5049271;28;20221;-71
2022/02/11 15:17:25;;;;;;;11.97;4.20;;;6.20;99.90;;;;;;5060772;28;21009;-71
2022/02/11 15:20:13;;;;;;;14.90;1.73;;;6.10;99.90;;;;;;5060056;28;20444;-72
2022/02/11 15:22:59;;;;;;;3.43;1.33;;;6.00;99.90;;;;;;5059202;28;20417;-72
2022/02/11 15:25:44;;;;;;;4.90;1.80;;;5.90;99.90;;;;;;5050353;28;20424;-71
2022/02/11 15:28:30;;;;;;;5.05;1.90;;;5.90;99.90;;;;;;5056451;28;20674;-72
2022/02/11 15:31:16;;;;;;;5.25;2.13;;;5.70;99.90;;;;;;5062221;28;20243;-72
2022/02/11 15:34:01;;;;;;;11.50;2.03;;;5.60;99.90;;;;;;5065436;28;20212;-72
2022/02/11 15:36:49;;;;;;;6.03;1.90;;;5.50;99.90;;;;;;5048975;28;20209;-71
2022/02/11 15:39:35;;;;;;;11.85;2.00;;;5.50;99.90;;;;;;5050309;28;20486;-71
2022/02/11 15:42:20;;;;;;;9.40;2.63;;;5.40;99.90;;;;;;5065213;28;20587;-71
2022/02/11 15:45:07;;;;;;;5.65;1.95;;;5.40;99.90;;;;;;5059295;28;20794;-72
2022/02/11 15:47:52;;;;;;;5.00;1.70;;;5.40;99.90;;;;;;5050399;28;20221;-72
2022/02/11 15:50:41;;;;;;;5.03;2.10;;;5.40;99.90;;;;;;5057186;28;20235;-71
2022/02/11 15:53:28;;;;;;;5.40;1.50;;;5.40;99.90;;;;;;5045644;28;20501;-72
2022/02/11 15:56:15;;;;;;;8.25;1.52;;;5.40;99.90;;;;;;5055576;28;20456;-71
2022/02/11 15:59:01;;;;;;;7.05;1.73;;;5.30;99.90;;;;;;5048955;28;20217;-71
2022/02/11 16:01:48;;;;;;;6.40;2.20;;;5.20;99.90;;;;;;5054324;28;20202;-71
2022/02/11 16:04:33;;;;;;;7.38;2.13;;;5.20;99.90;;;;;;5049878;28;20721;-71
2022/02/11 16:07:19;;;;;;;7.80;1.73;;;5.10;99.90;;;;;;5048227;28;20274;-72
2022/02/11 16:10:08;;;;;;;3.33;2.13;;;5.10;99.90;;;;;;5048649;28;20602;-72
2022/02/11 16:12:54;;;;;;;5.60;2.50;;;5.10;99.90;;;;;;5042427;28;20454;-71
2022/02/11 16:15:41;;;;;;;3.58;1.95;;;5.00;99.90;;;;;;5039958;28;20189;-71
2022/02/11 16:18:27;;;;;;;4.35;2.17;;;4.90;99.90;;;;;;5049999;28;20217;-71
2022/02/11 16:21:12;;;;;;;4.00;1.98;;;4.90;99.90;;;;;;5050554;28;20259;-71
2022/02/11 16:23:58;;;;;;;7.30;2.55;;;4.90;99.90;;;;;;5045015;28;20201;-71
2022/02/11 16:26:45;;;;;;;3.00;1.60;;;4.80;99.90;;;;;;5046741;28;20283;-70
2022/02/11 16:29:33;;;;;;;5.03;2.40;;;4.90;99.90;;;;;;5050737;28;20575;-71
2022/02/11 16:32:19;;;;;;;7.90;2.00;;;4.90;99.90;;;;;;5047823;28;20262;-70
2022/02/11 16:35:05;;;;;;;10.50;2.88;;;4.70;99.90;;;;;;5049996;28;20435;-71
2022/02/11 16:37:51;;;;;;;5.80;2.03;;;4.80;99.90;;;;;;5041664;28;20596;-71
2022/02/11 16:40:37;;;;;;;3.50;2.15;;;4.70;99.90;;;;;;5053085;28;20220;-71
2022/02/11 16:43:24;;;;;;;3.77;2.40;;;4.70;99.90;;;;;;5052197;28;20256;-71
2022/02/11 16:46:11;;;;;;;4.20;2.20;;;4.70;99.90;;;;;;5044655;28;20534;-71
2022/02/11 16:48:57;;;;;;;4.38;2.22;;;4.60;99.90;;;;;;5038277;28;20211;-70
2022/02/11 16:51:43;;;;;;;5.40;2.30;;;4.60;99.90;;;;;;5044799;28;20197;-70
2022/02/11 16:54:29;;;;;;;6.70;2.40;;;4.60;99.90;;;;;;5055292;28;20216;-70
2022/02/11 16:57:14;;;;;;;5.40;2.30;;;4.50;99.90;;;;;;5051134;28;21286;-70
2022/02/11 17:00:01;;;;;;;3.83;2.10;;;4.40;99.90;;;;;;5048788;28;20257;-70
2022/02/11 17:02:47;;;;;;;4.37;2.27;;;4.40;99.90;;;;;;5043526;28;20204;-70
2022/02/11 17:05:33;;;;;;;7.93;2.40;;;4.30;99.90;;;;;;5045278;28;20444;-71
2022/02/11 17:08:19;;;;;;;5.30;2.35;;;4.20;99.90;;;;;;5040458;28;20196;-73
2022/02/11 17:11:05;;;;;;;8.07;2.70;;;4.20;99.90;;;;;;5043039;28;20585;-70
2022/02/11 17:13:51;;;;;;;13.23;3.15;;;4.10;99.90;;;;;;5043017;28;20197;-70
2022/02/11 17:16:38;;;;;;;5.22;2.85;;;4.10;99.90;;;;;;5043259;28;20218;-70
2022/02/11 17:19:23;;;;;;;6.78;2.50;;;4.10;99.90;;;;;;5037636;28;20290;-70
2022/02/11 17:22:09;;;;;;;7.97;2.90;;;4.10;99.90;;;;;;5041144;28;20616;-71
2022/02/11 17:24:55;;;;;;;7.15;3.13;;;4.10;99.90;;;;;;5047813;28;20701;-71
2022/02/11 17:27:42;;;;;;;8.18;3.25;;;4.10;99.90;;;;;;5045583;28;20248;-71
2022/02/11 17:30:27;;;;;;;9.05;3.13;;;4.00;99.90;;;;;;5047841;28;20373;-71
2022/02/11 17:33:14;;;;;;;6.97;3.20;;;4.00;99.90;;;;;;5049999;28;20332;-71
2022/02/11 17:36:01;;;;;;;8.15;2.95;;;4.00;99.90;;;;;;5039799;28;20257;-73
2022/02/11 17:38:47;;;;;;;8.77;3.50;;;3.80;99.90;;;;;;5041775;28;20312;-71
2022/02/11 17:41:33;;;;;;;8.13;3.53;;;3.70;99.90;;;;;;5045556;28;20274;-71
2022/02/11 17:44:19;;;;;;;4.60;2.90;;;3.70;99.90;;;;;;5043497;28;20388;-72
2022/02/11 17:47:05;;;;;;;12.65;3.72;;;3.60;99.90;;;;;;5042198;28;20332;-71